Terminal Aerodrome Forecast
Issued by NWS

Home | Current Version | Previous Version | Text Only | Print | Product List | Glossary On
Versions: 1 2 3 4 5 6 7 8 9 10 11 12 13 14 15 16 17 18 19 20 21 22 23 24 25 26 27 28 29
959
FTUS43 KSGF 211727
TAFBBG
TAF
KBBG 211727Z 2118/2218 19006KT P6SM BKN150
     FM212200 17005KT P6SM VCSH OVC090
     FM220300 VRB03KT P6SM -RA OVC045
     FM220500 13004KT 5SM -RA BR OVC035
     FM220700 14004KT 1 1/2SM -RA BR OVC010
     FM221300 33004KT 1SM -RA BR OVC003
     FM221600 33008KT 2SM -RA BR OVC008=

USA.gov is the U.S. government's official web portal to all federal, state and local government web resources and services.